Time;durP1;ratioP1;P1;durP2;ratioP2;P2;SDS_P1;SDS_P2;PMS_P1;PMS_P2;Temp;Humidity;BMP_temperature;BMP_pressure;BME280_temperature;BME280_humidity;BME280_pressure;Samples;Min_cycle;Max_cycle;Signal;HPM_P1;HPM_P2
2021/08/29 00:01:10;;;;;;;4.57;2.67;;;;;;;21.17;55.32;102342.47;5116264;27;20505;-75
2021/08/29 00:03:35;;;;;;;4.95;2.55;;;;;;;21.20;55.24;102347.69;5134677;27;20027;-75
2021/08/29 00:06:00;;;;;;;6.45;2.88;;;;;;;21.17;55.37;102348.56;5133101;27;20102;-75
2021/08/29 00:08:26;;;;;;;6.30;2.58;;;;;;;21.20;55.26;102338.97;5115654;28;20093;-75
2021/08/29 00:10:51;;;;;;;5.88;2.60;;;;;;;21.21;55.39;102336.38;5116113;28;20039;-73
2021/08/29 00:13:16;;;;;;;4.43;2.22;;;;;;;21.19;55.30;102335.50;5115971;28;20035;-75
2021/08/29 00:15:42;;;;;;;6.13;2.67;;;;;;;21.19;54.75;102338.13;5116214;28;20023;-75
2021/08/29 00:18:07;;;;;;;5.75;2.60;;;;;;;21.19;55.09;102335.50;5133130;28;20380;-74
2021/08/29 00:20:33;;;;;;;4.70;2.45;;;;;;;21.19;54.90;102337.22;5133009;28;20038;-75
2021/08/29 00:22:58;;;;;;;6.00;2.75;;;;;;;21.18;55.31;102331.13;5134664;27;20031;-74
2021/08/29 00:25:23;;;;;;;6.20;2.55;;;;;;;21.21;55.01;102328.53;5098938;28;20055;-75
2021/08/29 00:27:49;;;;;;;4.80;2.55;;;;;;;21.21;55.19;102332.84;5132949;28;20031;-75
2021/08/29 00:30:14;;;;;;;6.20;2.55;;;;;;;21.22;55.14;102335.47;5117273;27;20031;-76
2021/08/29 00:32:40;;;;;;;6.25;2.30;;;;;;;21.19;54.75;102329.38;5137298;27;20057;-73
2021/08/29 00:35:06;;;;;;;5.70;2.60;;;;;;;21.23;55.06;102336.34;5138411;27;20031;-74
2021/08/29 00:37:31;;;;;;;5.75;2.65;;;;;;;21.15;55.08;102332.00;5119972;27;20076;-75
2021/08/29 00:39:57;;;;;;;4.70;2.50;;;;;;;21.17;54.97;102324.16;5138371;27;20069;-74
2021/08/29 00:42:23;;;;;;;3.35;2.22;;;;;;;21.20;55.25;102332.00;5136877;27;20041;-75
2021/08/29 00:44:49;;;;;;;4.00;2.50;;;;;;;21.26;55.33;102334.59;5137044;27;20030;-74
2021/08/29 00:47:15;;;;;;;5.47;2.63;;;;;;;21.21;54.92;102325.91;5136987;27;20027;-75
2021/08/29 00:49:41;;;;;;;3.50;2.50;;;;;;;21.22;54.85;102335.47;5119744;27;20062;-75
2021/08/29 00:52:08;;;;;;;7.25;2.60;;;;;;;21.20;54.67;102332.00;5136814;27;20477;-76
2021/08/29 00:54:34;;;;;;;4.78;2.80;;;;;;;21.21;55.04;102332.84;5119719;27;20027;-74
2021/08/29 00:57:01;;;;;;;5.65;2.72;;;;;;;21.21;54.83;102338.09;5136667;27;20026;-75
2021/08/29 00:59:31;;;;;;;4.25;2.40;;;;;;;21.21;55.00;102332.84;5138100;27;20019;-74
2021/08/29 01:02:07;;;;;;;5.40;2.35;;;;;;;21.21;55.48;102330.25;5119624;27;20030;-75
2021/08/29 01:04:38;;;;;;;4.45;2.45;;;;;;;21.18;54.71;102336.34;5136517;27;20031;-74
2021/08/29 01:07:10;;;;;;;5.30;2.42;;;;;;;21.21;55.34;102335.47;5136489;27;20023;-74
2021/08/29 01:09:40;;;;;;;5.60;2.67;;;;;;;21.20;54.71;102329.38;5136247;27;20096;-76
2021/08/29 01:12:07;;;;;;;4.18;2.67;;;;;;;21.26;54.95;102331.13;5137709;27;20472;-74
2021/08/29 01:14:34;;;;;;;4.05;2.75;;;;;;;21.24;54.98;102325.03;5136312;27;20031;-75
2021/08/29 01:17:01;;;;;;;4.13;2.72;;;;;;;21.25;54.62;102326.75;5137623;27;20034;-75
2021/08/29 01:19:53;;;;;;;4.57;2.60;;;;;;;21.23;54.32;102320.63;5136550;27;20051;-75
2021/08/29 01:22:19;;;;;;;6.22;2.40;;;;;;;21.22;54.99;102317.16;5137712;27;20047;-75
2021/08/29 01:24:46;;;;;;;4.65;2.50;;;;;;;21.23;54.70;102318.03;5136353;27;20023;-74
2021/08/29 01:27:25;;;;;;;5.00;2.45;;;;;;;21.24;54.84;102325.88;5137468;27;20027;-76
2021/08/29 01:29:51;;;;;;;4.63;2.65;;;;;;;21.24;54.97;102319.78;5135930;27;20080;-74
2021/08/29 01:32:19;;;;;;;4.05;2.50;;;;;;;21.22;54.59;102321.53;5135951;27;20026;-75
2021/08/29 01:34:47;;;;;;;3.33;2.33;;;;;;;21.23;54.99;102323.25;5137379;27;20362;-75
2021/08/29 01:37:14;;;;;;;5.47;2.70;;;;;;;21.23;54.60;102315.41;5137228;27;20026;-75
2021/08/29 01:39:40;;;;;;;3.55;2.40;;;;;;;21.24;54.82;102315.41;5135946;27;20465;-73
2021/08/29 01:42:06;;;;;;;5.05;2.70;;;;;;;21.22;54.39;102316.28;5136672;27;20030;-74
2021/08/29 01:44:32;;;;;;;6.88;2.60;;;;;;;21.19;54.60;102317.16;5135947;27;20046;-74
2021/08/29 01:46:58;;;;;;;4.07;2.33;;;;;;;21.18;54.17;102320.66;5137112;27;20019;-76
2021/08/29 01:49:25;;;;;;;4.50;2.53;;;;;;;21.19;54.42;102325.03;5135897;27;20023;-74
2021/08/29 01:51:51;;;;;;;4.68;2.53;;;;;;;21.19;54.65;102319.78;5137062;27;20039;-75
2021/08/29 01:54:16;;;;;;;6.22;2.65;;;;;;;21.22;54.31;102321.53;5101318;27;20034;-75
2021/08/29 01:57:04;;;;;;;4.50;2.45;;;;;;;21.25;54.70;102321.50;5136888;27;20027;-75
2021/08/29 01:59:30;;;;;;;3.75;2.42;;;;;;;21.20;54.60;102318.91;5118467;27;20056;-75
2021/08/29 02:01:57;;;;;;;5.32;2.55;;;;;;;21.24;55.19;102327.63;5135498;27;20019;-75
2021/08/29 02:04:24;;;;;;;4.55;2.28;;;;;;;21.24;54.64;102320.66;5118393;27;20053;-75
2021/08/29 02:07:02;;;;;;;6.20;3.05;;;;;;;21.25;54.66;102317.16;5135301;27;20540;-75
2021/08/29 02:09:29;;;;;;;4.13;2.10;;;;;;;21.26;54.72;102318.91;5135176;27;20047;-76
2021/08/29 02:11:54;;;;;;;4.50;2.53;;;;;;;21.26;54.73;102318.91;5118201;27;20020;-74
2021/08/29 02:14:23;;;;;;;5.55;2.40;;;;;;;21.28;54.54;102324.16;5118061;27;20538;-75
2021/08/29 02:16:50;;;;;;;3.83;2.25;;;;;;;21.25;54.48;102330.25;5135160;27;20176;-75
2021/08/29 02:19:25;;;;;;;3.78;2.15;;;;;;;21.26;54.53;102325.88;5118004;27;20023;-74
2021/08/29 02:21:52;;;;;;;4.88;2.35;;;;;;;21.27;54.29;102327.63;5136287;27;20015;-75
2021/08/29 02:24:22;;;;;;;3.35;2.35;;;;;;;21.27;54.80;102320.63;5136350;27;20058;-73
2021/08/29 02:26:47;;;;;;;5.38;2.53;;;;;;;21.26;54.53;102324.13;5135158;27;20056;-75
2021/08/29 02:29:13;;;;;;;3.78;2.35;;;;;;;21.24;54.41;102330.25;5100692;27;20039;-76
2021/08/29 02:31:39;;;;;;;5.43;2.40;;;;;;;21.25;54.63;102316.28;5134820;27;20130;-75
2021/08/29 02:34:04;;;;;;;6.00;2.22;;;;;;;21.25;54.50;102319.78;5117779;27;20027;-73
2021/08/29 02:36:30;;;;;;;5.10;2.47;;;;;;;21.28;54.60;102321.53;5117976;27;20422;-75
2021/08/29 02:38:56;;;;;;;4.55;2.50;;;;;;;21.30;54.79;102319.78;5134886;27;20118;-73
2021/08/29 02:41:23;;;;;;;5.35;2.53;;;;;;;21.27;54.24;102318.00;5117617;27;20502;-74
2021/08/29 02:43:52;;;;;;;4.10;2.28;;;;;;;21.28;54.30;102319.78;5135999;27;20023;-75
2021/08/29 02:46:17;;;;;;;4.72;2.33;;;;;;;21.27;54.34;102317.16;5135852;27;20023;-75
2021/08/29 02:48:46;;;;;;;4.53;2.55;;;;;;;21.28;54.42;102316.28;5134426;27;20083;-74
2021/08/29 02:51:12;;;;;;;4.03;2.40;;;;;;;21.29;54.48;102318.00;5134484;27;20398;-76
2021/08/29 02:53:40;;;;;;;6.38;2.40;;;;;;;21.28;54.42;102309.28;5116530;27;20034;-75
2021/08/29 02:56:07;;;;;;;4.03;2.13;;;;;;;21.30;54.59;102315.41;5117194;27;20356;-75
2021/08/29 02:58:34;;;;;;;4.55;2.20;;;;;;;21.30;54.44;102310.16;5134499;27;20026;-74
2021/08/29 03:00:59;;;;;;;5.80;2.20;;;;;;;21.30;54.28;102312.78;5134319;27;20029;-76
2021/08/29 03:03:25;;;;;;;4.45;2.30;;;;;;;21.31;54.55;102305.78;5117218;27;20023;-74
2021/08/29 03:05:50;;;;;;;3.92;2.05;;;;;;;21.30;54.72;102302.31;5134211;27;20027;-75
2021/08/29 03:08:16;;;;;;;4.28;2.00;;;;;;;21.32;54.63;102300.56;5134128;27;20030;-74
2021/08/29 03:10:41;;;;;;;4.55;2.20;;;;;;;21.30;54.16;102299.69;5134045;27;20059;-76
2021/08/29 03:13:09;;;;;;;3.42;1.90;;;;;;;21.30;54.37;102296.22;5116949;27;20549;-76
2021/08/29 03:15:34;;;;;;;3.35;2.10;;;;;;;21.30;54.44;102298.84;5135167;27;20076;-74
2021/08/29 03:18:00;;;;;;;4.00;2.00;;;;;;;21.30;54.32;102296.22;5135271;27;20019;-74
2021/08/29 03:20:27;;;;;;;4.22;2.30;;;;;;;21.30;54.57;102298.84;5133940;27;20523;-76
2021/08/29 03:22:53;;;;;;;5.32;2.40;;;;;;;21.31;54.36;102297.94;5135194;27;20064;-74
2021/08/29 03:25:19;;;;;;;4.82;2.40;;;;;;;21.29;54.36;102291.84;5116687;27;20023;-74
2021/08/29 03:27:44;;;;;;;4.75;1.90;;;;;;;21.28;54.26;102295.34;5116854;27;20027;-75
2021/08/29 03:30:11;;;;;;;3.63;2.03;;;;;;;21.29;54.20;102291.84;5133707;27;20035;-75
2021/08/29 03:32:37;;;;;;;5.70;2.60;;;;;;;21.28;54.25;102290.09;5133830;27;20541;-75
2021/08/29 03:35:04;;;;;;;4.47;2.30;;;;;;;21.30;54.40;102288.34;5133653;27;20027;-75
2021/08/29 03:37:31;;;;;;;3.60;1.98;;;;;;;21.29;54.29;102291.84;5116744;27;20362;-74
2021/08/29 03:40:02;;;;;;;3.45;2.00;;;;;;;21.29;54.35;102284.84;5133777;27;20019;-76
2021/08/29 03:42:31;;;;;;;6.72;2.38;;;;;;;21.29;54.25;102287.47;5135063;27;20058;-76
2021/08/29 03:44:57;;;;;;;3.42;1.85;;;;;;;21.28;54.14;102280.50;5134698;27;20019;-75
2021/08/29 03:47:23;;;;;;;8.23;2.45;;;;;;;21.32;54.41;102281.38;5133551;27;20035;-75
2021/08/29 03:49:48;;;;;;;5.53;2.20;;;;;;;21.31;54.42;102275.25;5134688;27;20030;-75
2021/08/29 03:52:17;;;;;;;4.50;2.00;;;;;;;21.28;54.13;102279.63;5133517;27;20026;-76
2021/08/29 03:54:45;;;;;;;5.20;2.40;;;;;;;21.28;54.27;102287.50;5134665;27;20026;-75
2021/08/29 03:57:11;;;;;;;4.85;2.03;;;;;;;21.29;54.34;102273.50;5133308;27;20026;-75
2021/08/29 03:59:36;;;;;;;3.90;2.20;;;;;;;21.29;54.23;102277.00;5134582;27;20015;-75
2021/08/29 04:02:03;;;;;;;4.75;2.28;;;;;;;21.28;54.38;102277.00;5116229;28;20046;-75
2021/08/29 04:04:29;;;;;;;4.93;2.25;;;;;;;21.30;54.20;102272.66;5133230;27;20116;-75
2021/08/29 04:06:55;;;;;;;4.60;2.10;;;;;;;21.31;54.28;102271.75;5116190;27;20113;-75
2021/08/29 04:09:24;;;;;;;6.18;2.25;;;;;;;21.31;54.31;102264.75;5116063;28;20071;-75
2021/08/29 04:11:52;;;;;;;4.25;2.40;;;;;;;21.31;54.40;102263.91;5133136;28;20023;-75
2021/08/29 04:14:18;;;;;;;3.90;1.90;;;;;;;21.32;54.15;102270.91;5133192;28;20033;-75
2021/08/29 04:16:44;;;;;;;4.57;2.10;;;;;;;21.29;54.06;102270.88;5099218;28;20114;-77
2021/08/29 04:19:11;;;;;;;4.53;2.25;;;;;;;21.28;53.98;102280.50;5133283;28;20034;-75
2021/08/29 04:21:37;;;;;;;4.78;1.95;;;;;;;21.29;54.03;102281.38;5116243;28;20027;-76
2021/08/29 04:24:02;;;;;;;6.05;2.08;;;;;;;21.29;54.10;102277.00;5133087;28;20110;-75
2021/08/29 04:26:28;;;;;;;3.72;1.95;;;;;;;21.29;54.22;102274.38;5133151;27;20039;-74
2021/08/29 04:28:54;;;;;;;4.10;2.03;;;;;;;21.33;53.92;102273.50;5134182;27;20034;-75
2021/08/29 04:31:23;;;;;;;4.88;2.25;;;;;;;21.31;53.98;102269.13;5134357;27;20065;-74
2021/08/29 04:33:49;;;;;;;3.50;2.00;;;;;;;21.30;54.09;102268.28;5134598;27;20034;-75
2021/08/29 04:36:15;;;;;;;7.60;2.17;;;;;;;21.30;54.07;102267.41;5134252;27;20019;-75
2021/08/29 04:38:40;;;;;;;5.60;2.33;;;;;;;21.28;54.21;102264.78;5134186;27;20080;-74
2021/08/29 04:41:06;;;;;;;3.75;2.03;;;;;;;21.32;54.28;102263.03;5098827;28;20027;-75
2021/08/29 04:43:31;;;;;;;5.57;2.00;;;;;;;21.34;54.00;102262.16;5115768;28;20374;-75
2021/08/29 04:45:57;;;;;;;4.45;1.98;;;;;;;21.35;54.10;102263.88;5134472;27;20488;-76
2021/08/29 04:48:22;;;;;;;3.47;1.95;;;;;;;21.36;54.28;102260.41;5134115;27;20027;-75
2021/08/29 04:50:48;;;;;;;7.18;2.38;;;;;;;21.32;53.98;102261.28;5132985;28;20520;-76
2021/08/29 04:53:14;;;;;;;5.28;2.10;;;;;;;21.32;53.88;102274.38;5115691;28;20023;-76
2021/08/29 04:55:39;;;;;;;6.78;2.53;;;;;;;21.33;54.01;102270.00;5115601;28;20031;-75
2021/08/29 04:58:04;;;;;;;9.15;2.22;;;;;;;21.30;53.87;102272.66;5134162;27;20019;-74
2021/08/29 05:00:30;;;;;;;5.22;2.42;;;;;;;21.27;53.77;102276.13;5115643;28;20038;-75
2021/08/29 05:02:55;;;;;;;6.07;2.00;;;;;;;21.26;53.79;102282.25;5132803;27;20476;-75
2021/08/29 05:05:20;;;;;;;5.20;2.00;;;;;;;21.28;53.98;102277.00;5132637;28;20035;-75
2021/08/29 05:07:46;;;;;;;5.25;2.15;;;;;;;21.31;54.02;102283.09;5132681;28;20061;-76
2021/08/29 05:10:11;;;;;;;6.78;2.40;;;;;;;21.27;54.07;102277.88;5132424;28;20047;-75
2021/08/29 05:12:36;;;;;;;4.47;2.08;;;;;;;21.28;53.74;102277.88;5132765;28;20039;-75
2021/08/29 05:15:03;;;;;;;4.07;2.13;;;;;;;21.26;53.85;102279.63;5133806;27;20027;-75
2021/08/29 05:17:28;;;;;;;7.28;2.40;;;;;;;21.28;54.08;102279.63;5118570;27;20059;-74
2021/08/29 05:19:53;;;;;;;7.35;2.42;;;;;;;21.27;53.49;102281.34;5137635;27;20424;-76
2021/08/29 05:22:19;;;;;;;6.38;2.00;;;;;;;21.32;54.15;102276.13;5119068;27;20027;-74
2021/08/29 05:24:44;;;;;;;7.35;2.42;;;;;;;21.29;53.68;102286.59;5137408;27;20384;-76
2021/08/29 05:27:09;;;;;;;4.90;1.80;;;;;;;21.28;53.75;102283.13;5136436;27;20027;-76
2021/08/29 05:29:35;;;;;;;4.03;1.83;;;;;;;21.34;53.93;102287.47;5119034;27;20126;-76
2021/08/29 05:32:00;;;;;;;6.75;2.38;;;;;;;21.33;53.78;102280.47;5119224;27;20031;-76
2021/08/29 05:34:26;;;;;;;5.72;2.10;;;;;;;21.33;53.90;102286.59;5101820;27;20038;-76
2021/08/29 05:36:51;;;;;;;5.55;2.10;;;;;;;21.35;53.71;102278.72;5137115;27;20023;-75
2021/08/29 05:39:16;;;;;;;3.70;2.08;;;;;;;21.34;53.46;102280.50;5135791;27;20065;-75
2021/08/29 05:41:42;;;;;;;4.57;2.13;;;;;;;21.34;53.80;102282.25;5101646;27;20027;-76
2021/08/29 05:44:07;;;;;;;5.57;2.08;;;;;;;21.33;53.56;102276.09;5135895;27;20027;-75
2021/08/29 05:46:33;;;;;;;6.00;2.10;;;;;;;21.34;53.38;102271.78;5137217;27;20027;-75
2021/08/29 05:48:58;;;;;;;4.65;1.90;;;;;;;21.37;53.74;102279.59;5118530;27;20365;-76
2021/08/29 05:51:23;;;;;;;4.82;2.00;;;;;;;21.35;53.47;102278.72;5135671;27;20019;-75
2021/08/29 05:53:49;;;;;;;4.60;2.00;;;;;;;21.34;53.34;102284.88;5135569;27;20171;-76
2021/08/29 05:56:14;;;;;;;4.13;1.95;;;;;;;21.35;53.58;102284.84;5135604;27;20027;-76
2021/08/29 05:58:39;;;;;;;8.15;2.15;;;;;;;21.34;53.74;102282.25;5135700;27;20095;-75
2021/08/29 06:01:05;;;;;;;4.90;1.90;;;;;;;21.38;53.64;102276.09;5118342;27;20072;-76
2021/08/29 06:03:37;;;;;;;7.13;2.05;;;;;;;21.45;53.60;102271.75;5101342;27;20039;-75
2021/08/29 06:06:02;;;;;;;4.50;2.00;;;;;;;21.46;53.79;102269.13;5135346;27;20019;-74
2021/08/29 06:08:28;;;;;;;4.38;1.80;;;;;;;21.45;53.78;102267.41;5135137;27;20064;-76
2021/08/29 06:10:53;;;;;;;5.88;2.40;;;;;;;21.41;53.72;102270.91;5118007;27;20412;-77
2021/08/29 06:13:18;;;;;;;4.75;2.15;;;;;;;21.36;53.95;102267.38;5118203;27;20111;-76
2021/08/29 06:15:44;;;;;;;4.40;2.13;;;;;;;21.35;53.77;102273.50;5135199;27;20034;-75
2021/08/29 06:18:09;;;;;;;7.03;2.53;;;;;;;21.29;53.93;102271.75;5135081;27;20038;-76
2021/08/29 06:20:34;;;;;;;4.97;2.25;;;;;;;21.30;53.90;102275.25;5135388;27;20055;-74
2021/08/29 06:23:00;;;;;;;7.47;2.53;;;;;;;21.28;53.81;102275.25;5135287;27;20031;-76
2021/08/29 06:25:25;;;;;;;6.45;2.50;;;;;;;21.30;53.23;102275.25;5117786;27;20043;-76
2021/08/29 06:27:50;;;;;;;8.15;2.63;;;;;;;21.28;53.30;102267.41;5100962;27;20118;-75
2021/08/29 06:30:16;;;;;;;7.90;2.30;;;;;;;21.27;53.00;102267.41;5134936;27;20496;-74
2021/08/29 06:32:41;;;;;;;7.47;2.30;;;;;;;21.28;52.99;102270.03;5117941;27;20050;-76
2021/08/29 06:35:07;;;;;;;10.23;2.70;;;;;;;21.30;52.95;102273.50;5117634;27;20118;-74
2021/08/29 06:37:32;;;;;;;8.35;2.25;;;;;;;21.22;53.51;102261.31;5117715;27;20088;-76
2021/08/29 06:39:58;;;;;;;8.30;2.60;;;;;;;21.24;53.34;102262.19;5136221;27;20027;-76
2021/08/29 06:42:23;;;;;;;8.00;3.25;;;;;;;21.21;53.05;102249.97;5134936;27;20027;-75
2021/08/29 06:44:49;;;;;;;7.43;2.35;;;;;;;21.24;52.98;102256.94;5134806;27;20027;-75
2021/08/29 06:47:14;;;;;;;6.53;2.53;;;;;;;21.23;53.04;102250.84;5117435;27;20031;-74
2021/08/29 06:49:39;;;;;;;7.72;2.88;;;;;;;21.24;52.96;102255.19;5117361;27;20031;-76
2021/08/29 06:52:05;;;;;;;9.75;2.90;;;;;;;21.24;53.03;102254.34;5134455;27;20050;-73
2021/08/29 06:54:31;;;;;;;9.27;3.03;;;;;;;21.22;52.71;102248.22;5135621;27;20084;-73
2021/08/29 06:56:56;;;;;;;8.95;2.65;;;;;;;21.21;52.81;102251.69;5135864;27;20027;-76
2021/08/29 06:59:21;;;;;;;9.23;2.80;;;;;;;21.17;52.83;102246.47;5134526;27;20027;-75
2021/08/29 07:01:47;;;;;;;7.57;2.58;;;;;;;21.20;52.66;102244.72;5134289;27;20425;-75
2021/08/29 07:04:12;;;;;;;7.75;2.70;;;;;;;21.22;52.67;102241.22;5135606;27;20031;-75
2021/08/29 07:06:38;;;;;;;7.05;2.80;;;;;;;21.23;52.96;102248.22;5135370;27;20026;-73
2021/08/29 07:09:03;;;;;;;9.10;2.80;;;;;;;21.20;52.80;102250.84;5133982;27;20130;-74
2021/08/29 07:11:28;;;;;;;9.40;3.15;;;;;;;21.22;52.83;102240.38;5134237;27;20023;-76
2021/08/29 07:13:54;;;;;;;7.63;2.40;;;;;;;21.23;52.93;102244.72;5116872;27;20490;-74
2021/08/29 07:16:19;;;;;;;12.07;3.45;;;;;;;21.32;53.25;102235.09;5135477;27;20048;-73
2021/08/29 07:18:45;;;;;;;13.43;4.20;;;;;;;21.32;52.88;102237.72;5117073;27;20076;-75
2021/08/29 07:21:10;;;;;;;13.73;3.72;;;;;;;21.32;52.80;102231.63;5133783;27;20034;-76
2021/08/29 07:23:35;;;;;;;12.73;3.60;;;;;;;21.33;52.85;102223.75;5133916;27;20156;-76
2021/08/29 07:26:01;;;;;;;11.52;3.90;;;;;;;21.33;52.76;102230.72;5133867;27;20115;-75
2021/08/29 07:28:26;;;;;;;10.75;3.70;;;;;;;21.32;53.37;102234.25;5133741;27;20027;-76
2021/08/29 07:30:51;;;;;;;10.30;4.18;;;;;;;21.32;53.14;102234.25;5133770;27;20065;-74
2021/08/29 07:33:17;;;;;;;11.77;3.83;;;;;;;21.30;52.76;102236.84;5116778;27;20031;-75
2021/08/29 07:35:42;;;;;;;11.98;3.20;;;;;;;21.28;53.10;102235.13;5116515;27;20031;-76
2021/08/29 07:38:08;;;;;;;14.88;3.58;;;;;;;21.26;53.17;102236.88;5116355;27;20050;-74
2021/08/29 07:40:33;;;;;;;13.00;3.47;;;;;;;21.30;52.72;102233.38;5099163;27;20122;-74
2021/08/29 07:42:58;;;;;;;8.23;3.05;;;;;;;21.30;52.69;102230.75;5116508;27;20030;-73
2021/08/29 07:45:26;;;;;;;10.65;3.58;;;;;;;21.33;52.83;102241.19;5133711;27;20023;-74
2021/08/29 07:47:52;;;;;;;9.60;3.30;;;;;;;21.33;52.79;102238.59;5133879;27;20476;-73
2021/08/29 07:50:24;;;;;;;12.02;3.38;;;;;;;21.34;52.56;102240.34;5134790;27;20023;-75
2021/08/29 07:52:50;;;;;;;8.55;3.20;;;;;;;21.32;52.52;102236.84;5134637;27;20047;-74
2021/08/29 07:55:16;;;;;;;10.65;2.83;;;;;;;21.33;52.46;102233.34;5134757;27;20054;-75
2021/08/29 07:57:41;;;;;;;10.45;2.95;;;;;;;21.43;52.59;102235.09;5116294;27;20054;-73
2021/08/29 08:00:08;;;;;;;14.30;3.40;;;;;;;21.44;52.36;102231.59;5133569;27;20380;-75
2021/08/29 08:02:33;;;;;;;40.35;9.63;;;;;;;21.44;52.65;102238.59;5134548;27;20050;-76
2021/08/29 08:04:59;;;;;;;42.28;10.82;;;;;;;21.41;52.41;102241.19;5133152;27;20476;-75
2021/08/29 08:07:24;;;;;;;29.08;8.20;;;;;;;21.44;53.89;102228.97;5116269;27;20027;-75
2021/08/29 08:09:49;;;;;;;31.58;7.38;;;;;;;21.47;55.48;102225.47;5134245;27;20120;-75
2021/08/29 08:12:15;;;;;;;25.92;7.10;;;;;;;21.43;58.48;102235.09;5133444;28;20055;-74
2021/08/29 08:14:41;;;;;;;34.05;7.10;;;;;;;21.36;60.30;102233.31;5133078;28;20441;-77
2021/08/29 08:17:07;;;;;;;24.27;6.03;;;;;;;21.26;61.67;102240.34;5133315;28;20031;-77
2021/08/29 08:19:33;;;;;;;20.52;6.07;;;;;;;21.10;61.28;102241.25;5134338;27;20094;-76
2021/08/29 08:21:58;;;;;;;22.75;5.70;;;;;;;21.02;62.13;102241.28;5134519;27;20106;-74
2021/08/29 08:24:24;;;;;;;18.13;4.60;;;;;;;20.94;62.16;102240.41;5133157;27;20523;-75
2021/08/29 08:26:49;;;;;;;17.55;4.45;;;;;;;20.87;61.13;102241.31;5134567;27;20042;-76
2021/08/29 08:29:15;;;;;;;14.02;4.60;;;;;;;20.80;63.01;102237.81;5134272;27;20021;-75
2021/08/29 08:31:43;;;;;;;15.13;4.05;;;;;;;20.71;60.57;102233.47;5132996;28;20027;-76
2021/08/29 08:34:08;;;;;;;13.77;4.15;;;;;;;20.75;60.90;102231.69;5132967;27;20068;-74
2021/08/29 08:36:34;;;;;;;16.95;4.65;;;;;;;20.77;60.60;102235.19;5133056;28;20422;-78
2021/08/29 08:39:02;;;;;;;17.33;4.70;;;;;;;20.79;60.95;102236.06;5132979;28;20054;-80
2021/08/29 08:41:28;;;;;;;13.93;4.20;;;;;;;20.85;60.79;102243.06;5134302;27;20027;-78
2021/08/29 08:43:54;;;;;;;16.13;4.32;;;;;;;20.85;60.88;102240.44;5133026;28;20184;-78
2021/08/29 08:46:20;;;;;;;15.52;4.63;;;;;;;20.89;60.64;102247.41;5099064;28;20079;-76
2021/08/29 08:48:51;;;;;;;10.95;3.72;;;;;;;20.83;61.42;102236.94;5133909;27;20019;-77
2021/08/29 08:51:23;;;;;;;14.80;4.18;;;;;;;20.72;63.15;102237.81;5135624;27;20465;-74
2021/08/29 08:53:51;;;;;;;14.05;4.50;;;;;;;20.67;61.38;102250.03;5138207;27;20023;-75
2021/08/29 08:56:19;;;;;;;10.75;3.97;;;;;;;20.63;64.38;102250.91;5137000;27;20025;-75
2021/08/29 08:58:46;;;;;;;12.57;3.50;;;;;;;20.64;62.72;102255.25;5136980;27;20024;-77
2021/08/29 09:01:12;;;;;;;13.65;3.95;;;;;;;20.65;64.39;102246.53;5102585;27;20034;-75
2021/08/29 09:03:38;;;;;;;16.60;3.85;;;;;;;20.64;62.72;102241.31;5136848;27;20371;-78
2021/08/29 09:06:05;;;;;;;15.85;3.80;;;;;;;20.60;58.34;102244.78;5136626;27;20022;-77
2021/08/29 09:08:31;;;;;;;15.38;4.07;;;;;;;20.57;64.02;102244.78;5136647;27;20035;-77
2021/08/29 09:10:57;;;;;;;14.38;4.15;;;;;;;20.50;61.15;102236.03;5137669;27;20485;-76
2021/08/29 09:13:22;;;;;;;13.48;3.72;;;;;;;20.46;62.00;102244.75;5119486;27;20042;-79
2021/08/29 09:15:48;;;;;;;16.77;4.05;;;;;;;20.50;62.45;102239.53;5137590;27;20023;-78
2021/08/29 09:18:14;;;;;;;14.40;3.67;;;;;;;20.61;62.09;102243.94;5119078;27;20034;-78
2021/08/29 09:20:40;;;;;;;14.65;3.95;;;;;;;20.64;61.93;102246.53;5119039;27;20027;-78
2021/08/29 09:23:11;;;;;;;12.55;3.75;;;;;;;20.64;61.98;102225.59;5119215;27;20117;-78
2021/08/29 09:25:41;;;;;;;14.50;3.60;;;;;;;20.66;60.59;102240.44;5136327;27;20487;-78
2021/08/29 09:28:12;;;;;;;10.95;3.80;;;;;;;20.67;60.27;102233.47;5136214;27;20019;-77
2021/08/29 09:30:42;;;;;;;10.30;3.30;;;;;;;20.71;61.41;102241.31;5136027;27;20024;-79
2021/08/29 09:33:07;;;;;;;13.27;3.75;;;;;;;20.74;59.95;102238.69;5136049;27;20023;-76
2021/08/29 09:35:35;;;;;;;11.85;3.55;;;;;;;20.68;60.76;102243.06;5135896;27;20079;-78
2021/08/29 09:38:05;;;;;;;16.83;4.40;;;;;;;20.70;62.07;102242.16;5136043;27;20061;-77
2021/08/29 09:40:34;;;;;;;8.73;3.05;;;;;;;20.68;60.37;102229.97;5135819;27;20015;-76
2021/08/29 09:43:02;;;;;;;13.93;4.00;;;;;;;20.69;61.97;102235.22;5135855;27;20015;-76
2021/08/29 09:45:32;;;;;;;14.75;4.15;;;;;;;20.72;60.92;102237.81;5135831;27;20358;-78
2021/08/29 09:48:15;;;;;;;14.90;3.88;;;;;;;20.70;60.73;102231.72;5135817;27;20063;-80
2021/08/29 09:50:45;;;;;;;13.20;3.67;;;;;;;20.69;61.28;102232.59;5135767;27;20020;-77
2021/08/29 09:53:16;;;;;;;18.60;4.20;;;;;;;20.67;61.72;102230.84;5135604;27;20055;-76
2021/08/29 09:55:47;;;;;;;11.98;3.50;;;;;;;20.66;61.01;102232.56;5135812;27;20110;-78
2021/08/29 09:58:32;;;;;;;12.15;3.50;;;;;;;20.61;61.20;102229.09;5136885;27;20034;-76
2021/08/29 10:01:11;;;;;;;14.70;4.03;;;;;;;20.61;61.81;102221.25;5135562;27;20034;-79
2021/08/29 10:03:38;;;;;;;14.23;3.60;;;;;;;20.56;61.85;102230.81;5135038;27;20015;-76
2021/08/29 10:06:22;;;;;;;10.70;3.22;;;;;;;20.58;62.33;102231.72;5101487;27;20101;-78
2021/08/29 10:08:50;;;;;;;13.43;3.60;;;;;;;20.59;61.88;102223.00;5135190;27;20023;-77
2021/08/29 10:11:16;;;;;;;12.80;3.70;;;;;;;20.58;61.55;102228.22;5136651;27;20043;-76
2021/08/29 10:13:42;;;;;;;13.73;3.80;;;;;;;20.61;61.49;102221.25;5117982;27;20051;-78
2021/08/29 10:16:08;;;;;;;12.50;3.35;;;;;;;20.60;62.58;102219.53;5135340;27;20019;-78
2021/08/29 10:18:41;;;;;;;12.68;3.42;;;;;;;20.62;62.18;102219.50;5118043;27;20072;-78
2021/08/29 10:21:10;;;;;;;13.60;3.60;;;;;;;20.61;60.97;102208.19;5136424;27;20470;-76
2021/08/29 10:23:41;;;;;;;11.25;3.72;;;;;;;20.66;62.21;102208.19;5135035;27;20103;-76
2021/08/29 10:26:09;;;;;;;10.50;3.47;;;;;;;20.66;61.25;102213.41;5136464;27;20349;-78
2021/08/29 10:28:39;;;;;;;12.70;3.63;;;;;;;20.63;62.92;102202.97;5134953;27;20019;-75
2021/08/29 10:31:11;;;;;;;12.60;3.35;;;;;;;20.63;62.65;102205.56;5135134;27;20532;-74
2021/08/29 10:33:37;;;;;;;14.90;3.70;;;;;;;20.65;61.68;102204.69;5134839;27;20376;-75
2021/08/29 10:36:03;;;;;;;10.60;3.10;;;;;;;20.65;62.30;102204.69;5135038;27;20384;-77
2021/08/29 10:38:29;;;;;;;13.55;3.42;;;;;;;20.66;61.52;102201.19;5118018;27;20031;-75
2021/08/29 10:40:55;;;;;;;14.40;3.60;;;;;;;20.68;61.64;102203.81;5134819;27;20111;-75
2021/08/29 10:43:21;;;;;;;11.75;3.47;;;;;;;20.70;61.71;102200.31;5117614;27;20027;-78
2021/08/29 10:45:46;;;;;;;14.80;3.80;;;;;;;20.67;62.52;102195.09;5117714;27;20035;-76
2021/08/29 10:48:16;;;;;;;13.10;3.85;;;;;;;20.68;59.05;102191.59;5117604;27;20027;-76
2021/08/29 10:50:46;;;;;;;14.80;3.50;;;;;;;20.66;60.96;102206.41;5134606;27;20023;-78
2021/08/29 10:53:35;;;;;;;13.63;3.55;;;;;;;20.70;62.20;102196.84;5134722;27;20038;-80
2021/08/29 10:56:16;;;;;;;15.30;3.70;;;;;;;20.72;62.33;102195.97;5134268;27;20103;-76
2021/08/29 10:59:10;;;;;;;13.13;3.80;;;;;;;20.73;62.11;102197.72;5134366;27;20468;-83
2021/08/29 11:01:40;;;;;;;;;;;;;;;20.72;62.00;102190.72;5119569;27;20048;-79
2021/08/29 11:04:18;;;;;;;11.38;3.20;;;;;;;20.70;62.14;102195.09;5134490;27;20006;-79
2021/08/29 11:06:51;;;;;;;18.63;3.92;;;;;;;20.67;61.93;102189.00;5134746;27;20034;-77
2021/08/29 11:09:46;;;;;;;16.20;4.07;;;;;;;20.70;61.45;102189.84;5118143;27;20054;-80
2021/08/29 11:12:15;;;;;;;11.52;3.90;;;;;;;20.72;61.75;102200.31;5121995;27;20541;-78
2021/08/29 11:14:51;;;;;;;13.32;3.97;;;;;;;20.71;62.21;102194.22;5133226;27;20041;-79
2021/08/29 11:17:31;;;;;;;14.20;3.33;;;;;;;20.74;61.37;102198.59;5134018;27;20496;-80
2021/08/29 11:20:03;;;;;;;15.60;4.25;;;;;;;20.78;62.02;102194.22;5134095;27;20489;-79
2021/08/29 11:22:37;;;;;;;15.52;3.75;;;;;;;20.77;60.97;102197.69;5133881;27;20023;-80